ADDS METAR Data INFO
IDs: Format: Raw Decoded Include TAF

Data at: 0650 UTC 18 Feb 2018

METAR for:EBFS (Florennes(AB), --, BX)
Text:EBFS 180633Z AUTO 18007KT 1200 BR OVC001/// 00/M00 Q1025 RED
Temperature: 0.0°C ( 32°F)
Dewpoint: 0.0°C ( 32°F) [RH = 100%]
Pressure (altimeter):30.27 inches Hg (1025.0 mb)
Winds:from the S (180 degrees) at 8 MPH (7 knots; 3.6 m/s)
Visibility: 0.75 sm ( 1.21 km)
Ceiling:100 feet AGL
Clouds: overcast cloud deck at 100 feet AGL
Weather:BR (mist)

TAF for:EBFS (Florennes(AB), --, BX)
Text:No data found